createdAt,value
2018-01-28T00:00:29.131Z,976.11
2018-01-28T00:01:29.068Z,976.08
2018-01-28T00:02:29.006Z,976.11
2018-01-28T00:03:28.945Z,976.10
2018-01-28T00:04:28.885Z,976.13
2018-01-28T00:05:28.825Z,976.13
2018-01-28T00:06:28.767Z,976.12
2018-01-28T00:07:28.703Z,976.11
2018-01-28T00:08:28.657Z,976.14
2018-01-28T00:09:28.587Z,976.15
2018-01-28T00:10:28.529Z,976.18
2018-01-28T00:11:28.467Z,976.17
2018-01-28T00:12:28.405Z,976.17
2018-01-28T00:13:28.347Z,976.21
2018-01-28T00:14:28.288Z,976.16
2018-01-28T00:15:28.227Z,976.15
2018-01-28T00:16:28.166Z,976.19
2018-01-28T00:17:28.109Z,976.11
2018-01-28T00:18:28.046Z,976.12
2018-01-28T00:19:27.991Z,976.16
2018-01-28T00:20:27.949Z,976.12
2018-01-28T00:21:27.872Z,976.11
2018-01-28T00:22:27.807Z,976.15
2018-01-28T00:23:27.749Z,976.13
2018-01-28T00:24:27.691Z,976.13
2018-01-28T00:25:27.622Z,976.15
2018-01-28T00:26:27.571Z,976.13
2018-01-28T00:27:27.506Z,976.11
2018-01-28T00:28:27.457Z,976.12
2018-01-28T00:29:27.386Z,976.09
2018-01-28T00:30:27.328Z,976.08
2018-01-28T00:31:27.271Z,976.10
2018-01-28T00:32:27.205Z,976.14
2018-01-28T00:33:27.156Z,976.13
2018-01-28T00:34:27.089Z,976.14
2018-01-28T00:35:27.027Z,976.12
2018-01-28T00:36:26.967Z,976.19
2018-01-28T00:37:26.906Z,976.18
2018-01-28T00:38:26.847Z,976.18
2018-01-28T00:39:26.786Z,976.20
2018-01-28T00:40:26.730Z,976.21
2018-01-28T00:41:26.672Z,976.26
2018-01-28T00:42:26.607Z,976.28
2018-01-28T00:43:26.545Z,976.30
2018-01-28T00:44:26.494Z,976.34
2018-01-28T00:45:26.428Z,976.39
2018-01-28T00:46:26.384Z,976.42
2018-01-28T00:47:26.307Z,976.42
2018-01-28T00:48:26.246Z,976.44
2018-01-28T00:49:26.187Z,976.48
2018-01-28T00:50:26.127Z,976.48
2018-01-28T00:51:26.066Z,976.40
2018-01-28T00:52:26.006Z,976.44
2018-01-28T00:53:25.955Z,976.40
2018-01-28T00:54:25.890Z,976.37
2018-01-28T00:55:25.828Z,976.40
2018-01-28T00:56:25.775Z,976.34
2018-01-28T00:57:25.708Z,976.42
2018-01-28T00:58:25.646Z,976.38
2018-01-28T00:59:25.586Z,976.39
2018-01-28T01:00:25.527Z,976.38
2018-01-28T01:01:25.467Z,976.37
2018-01-28T01:02:25.408Z,976.36
2018-01-28T01:03:25.347Z,976.37
2018-01-28T01:04:25.288Z,976.32
2018-01-28T01:05:25.228Z,976.33
2018-01-28T01:06:25.170Z,976.35
2018-01-28T01:07:25.111Z,976.37
2018-01-28T01:08:25.049Z,976.35
2018-01-28T01:09:24.989Z,976.41
2018-01-28T01:10:24.929Z,976.43
2018-01-28T01:11:24.866Z,976.36
2018-01-28T01:12:24.808Z,976.39
2018-01-28T01:13:24.747Z,976.34
2018-01-28T01:14:24.692Z,976.33
2018-01-28T01:15:24.627Z,976.29
2018-01-28T01:16:24.568Z,976.27
2018-01-28T01:17:24.511Z,976.31
2018-01-28T01:18:24.447Z,976.26
2018-01-28T01:19:24.388Z,976.27
2018-01-28T01:20:24.327Z,976.30
2018-01-28T01:21:24.270Z,976.34
2018-01-28T01:22:24.210Z,976.35
2018-01-28T01:23:24.150Z,976.36
2018-01-28T01:24:24.089Z,976.35
2018-01-28T01:25:24.028Z,976.34
2018-01-28T01:26:23.968Z,976.37
2018-01-28T01:27:23.910Z,976.36
2018-01-28T01:28:23.850Z,976.35
2018-01-28T01:29:23.790Z,976.33
2018-01-28T01:30:23.728Z,976.35
2018-01-28T01:31:23.668Z,976.34
2018-01-28T01:32:23.609Z,976.41
2018-01-28T01:33:23.549Z,976.38
2018-01-28T01:34:23.490Z,976.38
2018-01-28T01:35:23.428Z,976.38
2018-01-28T01:36:23.369Z,976.38
2018-01-28T01:37:23.310Z,976.37
2018-01-28T01:38:23.251Z,976.30
2018-01-28T01:39:23.189Z,976.34
2018-01-28T01:40:23.130Z,976.43
2018-01-28T01:41:23.068Z,976.42
2018-01-28T01:42:23.013Z,976.44
2018-01-28T01:43:22.948Z,976.46
2018-01-28T01:44:22.891Z,976.47
2018-01-28T01:45:22.829Z,976.48
2018-01-28T01:46:22.811Z,976.54
2018-01-28T01:47:22.710Z,976.53
2018-01-28T01:48:22.651Z,976.54
2018-01-28T01:49:22.590Z,976.54
2018-01-28T01:50:22.531Z,976.54
2018-01-28T01:51:22.470Z,976.57
2018-01-28T01:52:22.410Z,976.49
2018-01-28T01:53:22.349Z,976.52
2018-01-28T01:54:22.290Z,976.58
2018-01-28T01:55:22.231Z,976.58
2018-01-28T01:56:22.171Z,976.60
2018-01-28T01:57:22.110Z,976.60
2018-01-28T01:58:22.052Z,976.60
2018-01-28T01:59:21.991Z,976.62
2018-01-28T02:00:21.931Z,976.64
2018-01-28T02:01:21.870Z,976.63
2018-01-28T02:02:21.812Z,976.57
2018-01-28T02:03:21.750Z,976.53
2018-01-28T02:04:21.690Z,976.54
2018-01-28T02:05:21.634Z,976.55
2018-01-28T02:06:21.573Z,976.58
2018-01-28T02:07:21.512Z,976.56
2018-01-28T02:08:21.452Z,976.59
2018-01-28T02:09:21.392Z,976.57
2018-01-28T02:10:21.335Z,976.62
2018-01-28T02:11:21.272Z,976.66
2018-01-28T02:12:21.212Z,976.65
2018-01-28T02:13:21.153Z,976.67
2018-01-28T02:14:21.094Z,976.72
2018-01-28T02:15:21.034Z,976.71
2018-01-28T02:16:20.974Z,976.78
2018-01-28T02:17:20.912Z,976.80
2018-01-28T02:18:20.853Z,976.85
2018-01-28T02:19:20.829Z,976.90
2018-01-28T02:20:20.777Z,976.90
2018-01-28T02:21:20.674Z,976.86
2018-01-28T02:22:20.613Z,976.86
2018-01-28T02:23:20.555Z,976.90
2018-01-28T02:24:20.496Z,976.93
2018-01-28T02:25:20.434Z,976.84
2018-01-28T02:26:20.374Z,976.89
2018-01-28T02:27:20.313Z,976.94
2018-01-28T02:28:20.254Z,976.93
2018-01-28T02:29:20.197Z,976.91
2018-01-28T02:30:20.135Z,976.95
2018-01-28T02:31:20.076Z,976.97
2018-01-28T02:32:20.016Z,976.97
2018-01-28T02:33:19.957Z,976.98
2018-01-28T02:34:19.895Z,977.01
2018-01-28T02:35:19.834Z,977.01
2018-01-28T02:36:19.777Z,977.07
2018-01-28T02:37:19.715Z,977.06
2018-01-28T02:38:19.656Z,977.05
2018-01-28T02:39:19.595Z,977.04
2018-01-28T02:40:19.535Z,977.06
2018-01-28T02:41:19.478Z,977.08
2018-01-28T02:42:19.417Z,977.11
2018-01-28T02:43:19.356Z,977.11
2018-01-28T02:44:19.296Z,977.13
2018-01-28T02:45:19.237Z,977.16
2018-01-28T02:46:19.178Z,977.09
2018-01-28T02:47:19.117Z,977.09
2018-01-28T02:48:19.059Z,977.09
2018-01-28T02:49:18.997Z,977.11
2018-01-28T02:50:18.938Z,977.11
2018-01-28T02:51:18.877Z,977.16
2018-01-28T02:52:18.818Z,977.20
2018-01-28T02:53:18.758Z,977.16
2018-01-28T02:54:18.697Z,977.10
2018-01-28T02:55:18.637Z,977.09
2018-01-28T02:56:18.578Z,977.08
2018-01-28T02:57:18.516Z,977.10
2018-01-28T02:58:18.459Z,977.13
2018-01-28T02:59:18.397Z,977.12
2018-01-28T03:00:18.336Z,977.10
2018-01-28T03:01:18.280Z,977.11
2018-01-28T03:02:18.217Z,977.06
2018-01-28T03:03:18.161Z,977.08
2018-01-28T03:04:18.097Z,977.07
2018-01-28T03:05:18.038Z,977.15
2018-01-28T03:06:17.978Z,977.14
2018-01-28T03:07:17.919Z,977.14
2018-01-28T03:08:17.858Z,977.16
2018-01-28T03:09:17.798Z,977.16
2018-01-28T03:10:17.739Z,977.16
2018-01-28T03:11:17.724Z,977.17
2018-01-28T03:12:17.620Z,977.20
2018-01-28T03:13:17.561Z,977.16
2018-01-28T03:14:17.499Z,977.18
2018-01-28T03:15:17.437Z,977.20
2018-01-28T03:16:17.378Z,977.21
2018-01-28T03:17:17.318Z,977.20
2018-01-28T03:18:17.263Z,977.16
2018-01-28T03:19:17.200Z,977.20
2018-01-28T03:20:17.138Z,977.20
2018-01-28T03:21:17.079Z,977.18
2018-01-28T03:22:17.020Z,977.20
2018-01-28T03:23:16.995Z,977.24
2018-01-28T03:24:16.900Z,977.21
2018-01-28T03:25:16.839Z,977.23
2018-01-28T03:26:16.779Z,977.23
2018-01-28T03:27:16.719Z,977.27
2018-01-28T03:28:16.665Z,977.24
2018-01-28T03:29:16.601Z,977.24
2018-01-28T03:30:16.539Z,977.23
2018-01-28T03:31:16.481Z,977.24
2018-01-28T03:32:16.421Z,977.27
2018-01-28T03:33:16.361Z,977.21
2018-01-28T03:34:16.301Z,977.24
2018-01-28T03:35:16.238Z,977.27
2018-01-28T03:36:16.180Z,977.27
2018-01-28T03:37:16.121Z,977.28
2018-01-28T03:38:16.062Z,977.27
2018-01-28T03:39:16.001Z,977.32
2018-01-28T03:40:15.942Z,977.30
2018-01-28T03:41:15.884Z,977.30
2018-01-28T03:42:15.823Z,977.31
2018-01-28T03:43:15.768Z,977.31
2018-01-28T03:44:15.701Z,977.29
2018-01-28T03:45:15.642Z,977.26
2018-01-28T03:46:15.589Z,977.32
2018-01-28T03:47:15.521Z,977.32
2018-01-28T03:48:15.461Z,977.28
2018-01-28T03:49:15.402Z,977.32
2018-01-28T03:50:15.343Z,977.29
2018-01-28T03:51:15.280Z,977.27
2018-01-28T03:52:15.221Z,977.28
2018-01-28T03:53:15.165Z,977.28
2018-01-28T03:54:15.103Z,977.29
2018-01-28T03:55:15.043Z,977.32
2018-01-28T03:56:14.988Z,977.27
2018-01-28T03:57:14.922Z,977.32
2018-01-28T03:58:14.862Z,977.33
2018-01-28T03:59:14.805Z,977.28
2018-01-28T04:00:14.742Z,977.32
2018-01-28T04:01:14.682Z,977.27
2018-01-28T04:02:14.622Z,977.27
2018-01-28T04:03:14.560Z,977.22
2018-01-28T04:04:14.501Z,977.23
2018-01-28T04:05:14.445Z,977.20
2018-01-28T04:06:14.382Z,977.22
2018-01-28T04:07:14.324Z,977.22
2018-01-28T04:08:14.286Z,977.21
2018-01-28T04:09:14.202Z,977.17
2018-01-28T04:10:14.142Z,977.20
2018-01-28T04:11:14.082Z,977.20
2018-01-28T04:12:14.023Z,977.22
2018-01-28T04:13:13.963Z,977.22
2018-01-28T04:14:13.903Z,977.20
2018-01-28T04:15:13.842Z,977.23
2018-01-28T04:16:13.783Z,977.23
2018-01-28T04:17:13.723Z,977.24
2018-01-28T04:18:13.662Z,977.21
2018-01-28T04:19:13.604Z,977.24
2018-01-28T04:20:13.543Z,977.27
2018-01-28T04:21:13.483Z,977.29
2018-01-28T04:22:13.423Z,977.26
2018-01-28T04:23:13.362Z,977.28
2018-01-28T04:24:13.303Z,977.24
2018-01-28T04:25:13.244Z,977.28
2018-01-28T04:26:13.187Z,977.24
2018-01-28T04:27:13.123Z,977.26
2018-01-28T04:28:13.065Z,977.27
2018-01-28T04:29:13.003Z,977.26
2018-01-28T04:30:12.943Z,977.33
2018-01-28T04:31:12.882Z,977.34
2018-01-28T04:32:12.824Z,977.38
2018-01-28T04:33:12.764Z,977.38
2018-01-28T04:34:12.704Z,977.38
2018-01-28T04:35:12.645Z,977.38
2018-01-28T04:36:12.583Z,977.40
2018-01-28T04:37:12.523Z,977.37
2018-01-28T04:38:12.467Z,977.41
2018-01-28T04:39:12.403Z,977.36
2018-01-28T04:40:12.392Z,977.38
2018-01-28T04:41:12.285Z,977.34
2018-01-28T04:42:12.224Z,977.34
2018-01-28T04:43:12.163Z,977.30
2018-01-28T04:44:12.103Z,977.32
2018-01-28T04:45:12.045Z,977.26
2018-01-28T04:46:11.985Z,977.36
2018-01-28T04:47:11.925Z,977.32
2018-01-28T04:48:11.864Z,977.34
2018-01-28T04:49:11.809Z,977.35
2018-01-28T04:50:11.747Z,977.31
2018-01-28T04:51:11.685Z,977.36
2018-01-28T04:52:11.624Z,977.34
2018-01-28T04:53:11.563Z,977.32
2018-01-28T04:54:11.505Z,977.35
2018-01-28T04:55:11.443Z,977.35
2018-01-28T04:56:11.387Z,977.36
2018-01-28T04:57:11.324Z,977.36
2018-01-28T04:58:11.265Z,977.44
2018-01-28T04:59:11.204Z,977.45
2018-01-28T05:00:11.141Z,977.42
2018-01-28T05:01:11.092Z,977.45
2018-01-28T05:02:11.025Z,977.49
2018-01-28T05:03:10.966Z,977.45
2018-01-28T05:04:10.904Z,977.47
2018-01-28T05:05:10.844Z,977.46
2018-01-28T05:06:10.785Z,977.54
2018-01-28T05:07:10.727Z,977.54
2018-01-28T05:08:10.664Z,977.51
2018-01-28T05:09:10.606Z,977.50
2018-01-28T05:10:10.545Z,977.53
2018-01-28T05:11:10.487Z,977.51
2018-01-28T05:12:10.429Z,977.52
2018-01-28T05:13:10.370Z,977.58
2018-01-28T05:14:10.307Z,977.55
2018-01-28T05:15:10.243Z,977.54
2018-01-28T05:16:10.185Z,977.58
2018-01-28T05:17:10.125Z,977.60
2018-01-28T05:18:10.064Z,977.59
2018-01-28T05:19:10.003Z,977.61
2018-01-28T05:20:09.944Z,977.58
2018-01-28T05:21:09.884Z,977.62
2018-01-28T05:22:09.832Z,977.57
2018-01-28T05:23:09.763Z,977.60
2018-01-28T05:24:09.705Z,977.60
2018-01-28T05:25:09.647Z,977.59
2018-01-28T05:26:09.583Z,977.58
2018-01-28T05:27:09.522Z,977.51
2018-01-28T05:28:09.463Z,977.54
2018-01-28T05:29:09.406Z,977.55
2018-01-28T05:30:09.343Z,977.54
2018-01-28T05:31:09.281Z,977.54
2018-01-28T05:32:09.224Z,977.52
2018-01-28T05:33:09.162Z,977.52
2018-01-28T05:34:09.104Z,977.54
2018-01-28T05:35:09.041Z,977.52
2018-01-28T05:36:08.981Z,977.51
2018-01-28T05:37:08.923Z,977.58
2018-01-28T05:38:08.861Z,977.52
2018-01-28T05:39:08.801Z,977.56
2018-01-28T05:40:08.741Z,977.59
2018-01-28T05:41:08.682Z,977.60
2018-01-28T05:42:08.628Z,977.65
2018-01-28T05:43:08.561Z,977.68
2018-01-28T05:44:08.508Z,977.70
2018-01-28T05:45:08.440Z,977.73
2018-01-28T05:46:08.380Z,977.79
2018-01-28T05:47:08.323Z,977.75
2018-01-28T05:48:08.262Z,977.76
2018-01-28T05:49:08.199Z,977.77
2018-01-28T05:50:08.141Z,977.73
2018-01-28T05:51:08.082Z,977.76
2018-01-28T05:52:08.022Z,977.75
2018-01-28T05:53:07.960Z,977.72
2018-01-28T05:54:07.899Z,977.66
2018-01-28T05:55:07.838Z,977.67
2018-01-28T05:56:07.779Z,977.70
2018-01-28T05:57:07.719Z,977.78
2018-01-28T05:58:07.661Z,977.81
2018-01-28T05:59:07.598Z,977.82
2018-01-28T06:00:07.539Z,977.85
2018-01-28T06:01:07.479Z,977.87
2018-01-28T06:02:07.420Z,977.83
2018-01-28T06:03:07.361Z,977.84
2018-01-28T06:04:07.302Z,977.85
2018-01-28T06:05:07.238Z,977.85
2018-01-28T06:06:07.183Z,977.85
2018-01-28T06:07:07.118Z,977.86
2018-01-28T06:08:07.058Z,977.84
2018-01-28T06:09:06.999Z,977.80
2018-01-28T06:10:06.941Z,977.77
2018-01-28T06:11:06.878Z,977.77
2018-01-28T06:12:06.818Z,977.81
2018-01-28T06:13:06.758Z,977.80
2018-01-28T06:14:06.698Z,977.78
2018-01-28T06:15:06.638Z,977.84
2018-01-28T06:16:06.577Z,977.88
2018-01-28T06:17:06.518Z,977.89
2018-01-28T06:18:06.458Z,977.93
2018-01-28T06:19:06.398Z,977.89
2018-01-28T06:20:06.337Z,977.89
2018-01-28T06:21:06.286Z,977.93
2018-01-28T06:22:06.219Z,977.93
2018-01-28T06:23:06.162Z,977.96
2018-01-28T06:24:06.099Z,977.92
2018-01-28T06:25:06.038Z,977.92
2018-01-28T06:26:05.978Z,977.89
2018-01-28T06:27:05.919Z,977.86
2018-01-28T06:28:05.857Z,977.85
2018-01-28T06:29:05.802Z,977.83
2018-01-28T06:30:05.739Z,977.85
2018-01-28T06:31:05.678Z,977.88
2018-01-28T06:32:05.617Z,977.87
2018-01-28T06:33:05.558Z,977.89
2018-01-28T06:34:05.499Z,977.89
2018-01-28T06:35:05.436Z,977.92
2018-01-28T06:36:05.377Z,977.89
2018-01-28T06:37:05.317Z,977.86
2018-01-28T06:38:05.258Z,977.91
2018-01-28T06:39:05.197Z,977.94
2018-01-28T06:40:05.138Z,977.90
2018-01-28T06:41:05.076Z,977.90
2018-01-28T06:42:05.023Z,977.88
2018-01-28T06:43:04.957Z,977.91
2018-01-28T06:44:04.898Z,977.94
2018-01-28T06:45:04.837Z,977.90
2018-01-28T06:46:04.777Z,977.96
2018-01-28T06:47:04.717Z,977.91
2018-01-28T06:48:04.657Z,977.91
2018-01-28T06:49:04.601Z,977.94
2018-01-28T06:50:04.536Z,978.00
2018-01-28T06:51:04.476Z,978.03
2018-01-28T06:52:04.417Z,978.02
2018-01-28T06:53:04.358Z,978.02
2018-01-28T06:54:04.296Z,978.01
2018-01-28T06:55:04.238Z,978.08
2018-01-28T06:56:04.178Z,978.07
2018-01-28T06:57:04.123Z,978.03
2018-01-28T06:58:04.059Z,978.04
2018-01-28T06:59:03.997Z,978.05
2018-01-28T07:00:03.936Z,978.07
2018-01-28T07:01:03.876Z,978.10
2018-01-28T07:02:03.820Z,978.07
2018-01-28T07:03:03.758Z,978.11
2018-01-28T07:04:03.696Z,978.12
2018-01-28T07:05:03.636Z,978.13
2018-01-28T07:06:03.576Z,978.17
2018-01-28T07:07:03.515Z,978.17
2018-01-28T07:08:03.457Z,978.17
2018-01-28T07:09:03.395Z,978.21
2018-01-28T07:10:03.340Z,978.21
2018-01-28T07:11:03.272Z,978.25
2018-01-28T07:12:03.217Z,978.25
2018-01-28T07:13:03.155Z,978.21
2018-01-28T07:14:03.096Z,978.24
2018-01-28T07:15:03.038Z,978.24
2018-01-28T07:16:02.981Z,978.28
2018-01-28T07:17:02.915Z,978.27
2018-01-28T07:18:02.855Z,978.27
2018-01-28T07:19:02.794Z,978.27
2018-01-28T07:20:02.734Z,978.28
2018-01-28T07:21:02.676Z,978.27
2018-01-28T07:22:02.615Z,978.28
2018-01-28T07:23:02.556Z,978.26
2018-01-28T07:24:02.498Z,978.30
2018-01-28T07:25:02.435Z,978.32
2018-01-28T07:26:02.376Z,978.29
2018-01-28T07:27:02.314Z,978.27
2018-01-28T07:28:02.255Z,978.35
2018-01-28T07:29:02.194Z,978.36
2018-01-28T07:30:02.136Z,978.35
2018-01-28T07:31:02.075Z,978.40
2018-01-28T07:32:02.015Z,978.38
2018-01-28T07:33:01.958Z,978.41
2018-01-28T07:34:01.896Z,978.35
2018-01-28T07:35:01.856Z,978.39
2018-01-28T07:36:01.773Z,978.39
2018-01-28T07:37:01.716Z,978.40
2018-01-28T07:38:01.656Z,978.40
2018-01-28T07:39:01.595Z,978.40
2018-01-28T07:40:01.550Z,978.39
2018-01-28T07:41:01.474Z,978.37
2018-01-28T07:42:01.418Z,978.36
2018-01-28T07:43:01.355Z,978.40
2018-01-28T07:44:01.294Z,978.45
2018-01-28T07:45:01.239Z,978.45
2018-01-28T07:46:01.172Z,978.43
2018-01-28T07:47:01.112Z,978.45
2018-01-28T07:48:01.053Z,978.48
2018-01-28T07:49:01.008Z,978.48
2018-01-28T07:50:00.934Z,978.45
2018-01-28T07:51:00.872Z,978.44
2018-01-28T07:52:00.814Z,978.50
2018-01-28T07:53:00.755Z,978.44
2018-01-28T07:54:00.694Z,978.47
2018-01-28T07:55:00.634Z,978.44
2018-01-28T07:56:00.573Z,978.42
2018-01-28T07:57:00.515Z,978.42
2018-01-28T07:58:00.456Z,978.41
2018-01-28T07:59:00.394Z,978.43
2018-01-28T08:00:00.335Z,978.43
2018-01-28T08:01:00.275Z,978.37
2018-01-28T08:02:00.215Z,978.38
2018-01-28T08:03:00.161Z,978.40
2018-01-28T08:04:00.096Z,978.39
2018-01-28T08:05:00.037Z,978.38
2018-01-28T08:05:59.972Z,978.39
2018-01-28T08:06:59.908Z,978.40
2018-01-28T08:07:59.853Z,978.40
2018-01-28T08:08:59.814Z,978.44
2018-01-28T08:09:59.733Z,978.42
2018-01-28T08:10:59.674Z,978.42
2018-01-28T08:11:59.615Z,978.40
2018-01-28T08:12:59.555Z,978.45
2018-01-28T08:13:59.496Z,978.38
2018-01-28T08:14:59.437Z,978.41
2018-01-28T08:15:59.388Z,978.40
2018-01-28T08:16:59.314Z,978.43
2018-01-28T08:17:59.257Z,978.40
2018-01-28T08:18:59.196Z,978.39
2018-01-28T08:19:59.133Z,978.42
2018-01-28T08:20:59.077Z,978.44
2018-01-28T08:21:59.051Z,978.43
2018-01-28T08:22:58.957Z,978.43
2018-01-28T08:23:58.895Z,978.42
2018-01-28T08:24:58.885Z,978.45
2018-01-28T08:25:58.777Z,978.45
2018-01-28T08:26:58.720Z,978.42
2018-01-28T08:27:58.693Z,978.41
2018-01-28T08:28:58.599Z,978.41
2018-01-28T08:29:58.540Z,978.34
2018-01-28T08:30:58.479Z,978.38
2018-01-28T08:31:58.419Z,978.40
2018-01-28T08:32:58.358Z,978.40
2018-01-28T08:33:58.300Z,978.42
2018-01-28T08:34:58.239Z,978.43
2018-01-28T08:35:58.180Z,978.41
2018-01-28T08:36:58.121Z,978.41
2018-01-28T08:37:58.061Z,978.43
2018-01-28T08:38:57.999Z,978.49
2018-01-28T08:39:57.940Z,978.52
2018-01-28T08:40:57.880Z,978.52
2018-01-28T08:41:57.841Z,978.55
2018-01-28T08:42:57.760Z,978.52
2018-01-28T08:43:57.702Z,978.57
2018-01-28T08:44:57.646Z,978.56
2018-01-28T08:45:57.581Z,978.54
2018-01-28T08:46:57.525Z,978.57
2018-01-28T08:47:57.484Z,978.61
2018-01-28T08:48:57.406Z,978.61
2018-01-28T08:49:57.346Z,978.58
2018-01-28T08:50:57.282Z,978.64
2018-01-28T08:51:57.226Z,978.66
2018-01-28T08:52:57.167Z,978.69
2018-01-28T08:53:57.106Z,978.71
2018-01-28T08:54:57.046Z,978.73
2018-01-28T08:55:56.985Z,978.70
2018-01-28T08:56:56.925Z,978.75
2018-01-28T08:57:56.868Z,978.77
2018-01-28T08:58:56.806Z,978.78
2018-01-28T08:59:56.746Z,978.79
2018-01-28T09:00:56.688Z,978.83
2018-01-28T09:01:56.631Z,978.84
2018-01-28T09:02:56.570Z,978.84
2018-01-28T09:03:56.509Z,978.85
2018-01-28T09:04:56.451Z,978.81
2018-01-28T09:05:56.392Z,978.86
2018-01-28T09:06:56.330Z,978.83
2018-01-28T09:07:56.270Z,978.86
2018-01-28T09:08:56.212Z,978.86
2018-01-28T09:09:56.153Z,978.85
2018-01-28T09:10:56.093Z,978.85
2018-01-28T09:11:56.034Z,978.83
2018-01-28T09:12:55.974Z,978.84
2018-01-28T09:13:55.917Z,978.84
2018-01-28T09:14:55.855Z,978.85
2018-01-28T09:15:55.795Z,978.85
2018-01-28T09:16:55.735Z,978.87
2018-01-28T09:17:55.678Z,978.88
2018-01-28T09:18:55.618Z,978.88
2018-01-28T09:19:55.559Z,978.87
2018-01-28T09:20:55.502Z,978.91
2018-01-28T09:21:55.439Z,978.88
2018-01-28T09:22:55.378Z,978.88
2018-01-28T09:23:55.322Z,978.87
2018-01-28T09:24:55.261Z,978.92
2018-01-28T09:25:55.202Z,978.91
2018-01-28T09:26:55.143Z,978.91
2018-01-28T09:27:55.084Z,978.92
2018-01-28T09:28:55.026Z,978.85
2018-01-28T09:29:54.964Z,978.82
2018-01-28T09:30:54.904Z,978.85
2018-01-28T09:31:54.845Z,978.84
2018-01-28T09:32:54.787Z,978.83
2018-01-28T09:33:54.728Z,978.84
2018-01-28T09:34:54.667Z,978.84
2018-01-28T09:35:54.607Z,978.89
2018-01-28T09:36:54.548Z,978.91
2018-01-28T09:37:54.491Z,978.87
2018-01-28T09:38:54.429Z,978.93
2018-01-28T09:39:54.372Z,978.88
2018-01-28T09:40:54.314Z,978.87
2018-01-28T09:41:54.254Z,978.83
2018-01-28T09:42:54.193Z,978.84
2018-01-28T09:43:54.135Z,978.87
2018-01-28T09:44:54.075Z,978.86
2018-01-28T09:45:54.016Z,978.88
2018-01-28T09:46:53.956Z,978.90
2018-01-28T09:47:53.896Z,978.85
2018-01-28T09:48:53.837Z,978.89
2018-01-28T09:49:53.779Z,978.93
2018-01-28T09:50:53.720Z,978.88
2018-01-28T09:51:53.661Z,978.89
2018-01-28T09:52:53.607Z,978.93
2018-01-28T09:53:53.541Z,978.93
2018-01-28T09:54:53.482Z,978.94
2018-01-28T09:55:53.422Z,978.91
2018-01-28T09:56:53.366Z,978.92
2018-01-28T09:57:53.307Z,978.97
2018-01-28T09:58:53.246Z,979.00
2018-01-28T09:59:53.185Z,979.02
2018-01-28T10:00:53.126Z,979.04
2018-01-28T10:01:53.068Z,979.04
2018-01-28T10:02:53.007Z,979.00
2018-01-28T10:03:52.955Z,979.03
2018-01-28T10:04:52.889Z,979.06
2018-01-28T10:05:52.832Z,979.02
2018-01-28T10:06:52.773Z,979.03
2018-01-28T10:07:52.712Z,979.04
2018-01-28T10:08:52.652Z,979.07
2018-01-28T10:09:52.594Z,979.06
2018-01-28T10:10:52.534Z,979.08
2018-01-28T10:11:52.475Z,979.04
2018-01-28T10:12:52.416Z,979.08
2018-01-28T10:13:52.357Z,979.06
2018-01-28T10:14:52.299Z,979.07
2018-01-28T10:15:52.238Z,979.04
2018-01-28T10:16:52.179Z,979.01
2018-01-28T10:17:52.119Z,979.05
2018-01-28T10:18:52.062Z,979.01
2018-01-28T10:19:52.000Z,979.03
2018-01-28T10:20:51.941Z,979.00
2018-01-28T10:21:51.882Z,979.00
2018-01-28T10:22:51.822Z,979.04
2018-01-28T10:23:51.763Z,979.05
2018-01-28T10:24:51.754Z,979.03
2018-01-28T10:25:51.648Z,979.08
2018-01-28T10:26:51.586Z,979.07
2018-01-28T10:27:51.528Z,979.11
2018-01-28T10:28:51.469Z,979.03
2018-01-28T10:29:51.410Z,979.03
2018-01-28T10:30:51.354Z,979.03
2018-01-28T10:31:51.295Z,979.09
2018-01-28T10:32:51.237Z,979.05
2018-01-28T10:33:51.176Z,979.05
2018-01-28T10:34:51.162Z,979.06
2018-01-28T10:35:51.057Z,979.08
2018-01-28T10:36:51.000Z,979.07
2018-01-28T10:37:50.941Z,979.09
2018-01-28T10:38:50.885Z,979.04
2018-01-28T10:39:50.827Z,979.10
2018-01-28T10:40:50.763Z,979.08
2018-01-28T10:41:50.705Z,979.07
2018-01-28T10:42:50.647Z,979.06
2018-01-28T10:43:50.616Z,979.09
2018-01-28T10:44:50.529Z,979.04
2018-01-28T10:45:50.470Z,979.05
2018-01-28T10:46:50.410Z,978.99
2018-01-28T10:47:50.353Z,978.98
2018-01-28T10:48:50.292Z,978.94
2018-01-28T10:49:50.234Z,978.94
2018-01-28T10:50:50.178Z,978.93
2018-01-28T10:51:50.116Z,978.94
2018-01-28T10:52:50.058Z,978.92
2018-01-28T10:53:49.999Z,978.92
2018-01-28T10:54:49.938Z,978.88
2018-01-28T10:55:49.879Z,978.90
2018-01-28T10:56:49.823Z,978.90
2018-01-28T10:57:49.764Z,978.90
2018-01-28T10:58:49.702Z,978.91
2018-01-28T10:59:49.645Z,978.88
2018-01-28T11:00:49.587Z,978.88
2018-01-28T11:01:49.540Z,978.85
2018-01-28T11:02:49.470Z,978.90
2018-01-28T11:03:49.409Z,978.89
2018-01-28T11:04:49.350Z,978.90
2018-01-28T11:05:49.291Z,978.94
2018-01-28T11:06:49.238Z,978.96
2018-01-28T11:07:49.173Z,978.95
2018-01-28T11:08:49.114Z,978.93
2018-01-28T11:09:49.055Z,978.94
2018-01-28T11:10:49.013Z,978.93
2018-01-28T11:11:48.937Z,978.95
2018-01-28T11:12:48.880Z,978.92
2018-01-28T11:13:48.822Z,978.90
2018-01-28T11:14:48.762Z,978.88
2018-01-28T11:15:48.703Z,978.89
2018-01-28T11:16:48.647Z,978.88
2018-01-28T11:17:48.588Z,978.84
2018-01-28T11:18:48.529Z,978.84
2018-01-28T11:19:48.470Z,978.82
2018-01-28T11:20:48.411Z,978.82
2018-01-28T11:21:48.353Z,978.83
2018-01-28T11:22:48.298Z,978.83
2018-01-28T11:23:48.239Z,978.83
2018-01-28T11:24:48.179Z,978.82
2018-01-28T11:25:48.120Z,978.81
2018-01-28T11:26:48.061Z,978.79
2018-01-28T11:27:48.006Z,978.83
2018-01-28T11:28:47.946Z,978.79
2018-01-28T11:29:47.886Z,978.81
2018-01-28T11:30:47.828Z,978.80
2018-01-28T11:31:47.777Z,978.81
2018-01-28T11:32:47.715Z,978.82
2018-01-28T11:33:47.655Z,978.86
2018-01-28T11:34:47.598Z,978.82
2018-01-28T11:35:47.537Z,978.80
2018-01-28T11:36:47.480Z,978.87
2018-01-28T11:37:47.423Z,978.85
2018-01-28T11:38:47.362Z,978.88
2018-01-28T11:39:47.305Z,978.80
2018-01-28T11:40:47.255Z,978.81
2018-01-28T11:41:47.192Z,978.81
2018-01-28T11:42:47.134Z,978.82
2018-01-28T11:43:47.074Z,978.78
2018-01-28T11:44:47.015Z,978.80
2018-01-28T11:45:46.960Z,978.78
2018-01-28T11:46:46.897Z,978.77
2018-01-28T11:47:46.843Z,978.78
2018-01-28T11:48:46.783Z,978.81
2018-01-28T11:49:46.727Z,978.79
2018-01-28T11:50:46.665Z,978.76
2018-01-28T11:51:46.606Z,978.79
2018-01-28T11:52:46.551Z,978.76
2018-01-28T11:53:46.491Z,978.80
2018-01-28T11:54:46.433Z,978.80
2018-01-28T11:55:46.373Z,978.79
2018-01-28T11:56:46.315Z,978.80
2018-01-28T11:57:46.258Z,978.76
2018-01-28T11:58:46.201Z,978.81
2018-01-28T11:59:46.147Z,978.77
2018-01-28T12:00:46.082Z,978.79
2018-01-28T12:01:46.025Z,978.77
2018-01-28T12:02:45.966Z,978.79
2018-01-28T12:03:45.911Z,978.77
2018-01-28T12:04:45.850Z,978.75
2018-01-28T12:05:45.790Z,978.72
2018-01-28T12:06:45.732Z,978.67
2018-01-28T12:07:45.674Z,978.71
2018-01-28T12:08:45.616Z,978.70
2018-01-28T12:09:45.558Z,978.73
2018-01-28T12:10:45.501Z,978.71
2018-01-28T12:11:45.440Z,978.70
2018-01-28T12:12:45.384Z,978.67
2018-01-28T12:13:45.329Z,978.67
2018-01-28T12:14:45.268Z,978.69
2018-01-28T12:15:45.209Z,978.67
2018-01-28T12:16:45.150Z,978.66
2018-01-28T12:17:45.096Z,978.66
2018-01-28T12:18:45.034Z,978.67
2018-01-28T12:19:45.008Z,978.65
2018-01-28T12:20:44.916Z,978.62
2018-01-28T12:21:44.862Z,978.63
2018-01-28T12:22:44.799Z,978.64
2018-01-28T12:23:44.747Z,978.62
2018-01-28T12:24:44.686Z,978.58
2018-01-28T12:25:44.627Z,978.57
2018-01-28T12:26:44.567Z,978.57
2018-01-28T12:27:44.512Z,978.56